Occidental, CA

1:26 AM PDT on May 25, 2015 (GMT -0700)
Petaluma | | Change Station
CLOSE
Current Station
Airport
Location: Petaluma,
Elevation: 89 ft
Nearby Weather Stations

Elev 89 ft 38.26 °N, 122.61 °W | Updated 31 minutes ago

Overcast
Overcast
50 °F
Feels Like 50 °F
N
7
Wind Variable Wind from WSW

Today
High -- | Low -- °F
--% Chance of Precip.
Yesterday
High -- | Low -- °F
Precip. -- in
5:53 AM 8:24 PM
Waxing Crescent, 46% visible
Pressure 29.98 in
Visibility 7.0 miles
Clouds Overcast 600 ft
Dew Point 50 °F
Humidity 100%
Rainfall 0.00 in
Snow Depth Not available.
UV 0 out of 12
Pollen 6.00 out of 12
Air Quality Not available.
Flu Activity Sporadic
METAR KO69 250755Z AUTO 25006KT 7SM OVC006 10/10 A2998 RMK AO1

More Conditions Fewer Conditions

Pressure 29.98 in
Visibility 7.0 miles
Clouds Overcast 600 ft
Dew Point 50 °F
Humidity 100%
Rainfall 0.00 in
Snow Depth Not available.
UV 0 out of 12
Pollen 6.00 out of 12
Air Quality Not available.
Flu Activity Sporadic
METAR KO69 250755Z AUTO 25006KT 7SM OVC006 10/10 A2998 RMK AO1

More Conditions Fewer Conditions

10-Day Weather Forecast

Almanac

Astronomy

May. 25, 2015 Rise Set
Actual Time
Civil Twilight
Nautical Twilight
Astronomical Twilight
Moon
Length of Visible Light
Length of Day
Tomorrow will be .
, % of the Moon is Illuminated

Today's Extremes

State Highs State Lows

Community

WunderPhotos

Upload Photos

1,823,959 photos uploaded!

WunderBlogs® & News

Nearby

Air Quality

  Air Quality AQ Index Pollutant
Not available.

Snow Depth

Station Depth Elevation

Earthquake Activity

City Distance Mag. Time & Date
Minimum magnitude displayed is 2.5.

Coastal Water Temperatures

Place Temperature

Stations

Nearby Weather Stations

Station Location Temp. Windchill Dew Point Humidity Wind Precip. Elev Updated Type